默认 日期 大小 文件数 浏览量 最新下载 xml
24 03 24磁力链接相关资源由用户搜索指令自动获取,结果来源于网络,本站不存储任何资料,亦不承担任何责任,请于24小时内删除,搜索到33442个磁力,显示前4000条数据,用时54ms。
    {"Provided by PornRips.to.nfo": 47, "KissMeFuckMe.24.03.23.Victoria.Voxxx.Chanel.Camryn.No.Sore.Losers.XXX.1080p.HEVC.x265.PRT.mp4": 417680514}
创建时间: 2026-05-06 18:09:45 大小:398.33 MB 文件数量:2 热度:0
    {"SlamDunk_Anxi.jpg": 133197, "Hentaied.24.03.08.Emiri.Momota.And.Rikako. ... .MP4-KTR.jpg": 439759, "Hentaied.24.03.08.Emiri.Momota.And.Rikako ...
创建时间: 2026-05-06 12:11:59 大小:4.61 GB 文件数量:5 热度:0
    ... .Torrenting.org.nfo": 86, "FirstBGG.24.03.07.Hazel.Dew.And.Lissa ... -iPT Team.avi": 279361960, "FirstBGG.24.03.07.Hazel.Dew.And.Lissa ...
创建时间: 2026-05-06 10:58:08 大小:269.03 MB 文件数量:12 热度:0
    {"Torrent Downloaded From XXXClub.to .nfo": 34, "Milfy.24.03.20.Sophia.Locke.Curvy.Mom.Sophia.Is.Tempted.By.College.Kids.BBC.XXX.720p.mp4": 2191049169}
创建时间: 2026-05-05 18:42:57 大小:2.04 GB 文件数量:2 热度:0
    {"Torrent Downloaded From XXXClub.to .nfo": 34, "interracialpickups.26.03.24.chloe.rose.480p.mp4": 312683333}
创建时间: 2026-05-05 17:53:56 大小:298.2 MB 文件数量:2 热度:0
    ... @[中文字幕]Vixen.24.03.08.Freya.Parker.Fiery.Redhead ...
创建时间: 2026-05-05 17:00:25 大小:2.78 GB 文件数量:5 热度:0
    {"Torrent Downloaded From XXXClub.to .nfo": 34, "AdultTime.24.03.02.Avery.Black.Up.Close.With.Avery.Black.XXX.720p.mp4": 550474410}
创建时间: 2026-05-05 14:31:05 大小:524.97 MB 文件数量:2 热度:0
    {"mbb.26.03.24.spencer.scott.mp4": 620479609, "Torrent Downloaded From XXXClub.to .nfo": 34}
创建时间: 2026-05-04 19:55:58 大小:591.74 MB 文件数量:2 热度:0
    {"SlamDunk_Anxi.jpg": 133197, "BrazzersExxtra.24.03.11.Bonni.Gee.Dicked.Down. ... .MP4-KTR.jpg": 1920345, "BrazzersExxtra.24.03.11.Bonni.Gee.Dicked.Down ...
创建时间: 2026-05-04 15:27:47 大小:1.77 GB 文件数量:5 热度:0
    ... 文字幕]Blacked.26.03.24.Della.Cate.4K.mp4": 2473710023 ...
创建时间: 2026-05-04 14:28:38 大小:2.33 GB 文件数量:5 热度:0
    {"Torrent Downloaded From XXXClub.to .nfo": 34, "PrimalFetish.24.03.06.Katie.Kush.And.Michael.Masters.XXX.480p.MP4MaMi.480p.mp4": 178264624}
创建时间: 2026-05-04 13:04:12 大小:170.01 MB 文件数量:2 热度:0
    {"Torrent Downloaded From XXXClub.to .nfo": 34, "shockchallenge.24.03.16.latex.rapture.the.epic.sybian.shock.battle.mp4": 890586296}
创建时间: 2026-05-04 11:40:09 大小:849.33 MB 文件数量:2 热度:0
    {"Torrent Downloaded From XXXClub.to .nfo": 34, "TabooHeat.26.03.24.Amiee.Cambridge.Lola.Valentine.XXX.720p.mp4": 913280098}
创建时间: 2026-05-04 09:01:02 大小:870.97 MB 文件数量:2 热度:0
    ... 75809983, "19 Slipknot.flac": 139601322, "03 Row Jimmy.flac": 105466539, "14 ... .flac": 168033598, "1976-06-03 info.txt": 1029, "07 ... Dead - 1976-06-03 Portland (Play Dead) [24-48].ffp": 1270, ... "Grateful Dead - 1976-06-03 Portland (Play Dead) [24-48].md5": 1292}
创建时间: 2026-05-03 16:35:48 大小:1.84 GB 文件数量:26 热度:0
    {"Provided by PornRips.to.nfo": 47, "IntimatePOV.24.03.16.Ivi.Rein.Isnt.She.Lucky.XXX.720p.HEVC.x265.PRT.mp4": 229705250}
创建时间: 2026-05-03 14:27:04 大小:219.06 MB 文件数量:2 热度:0
    {"OnlyFans.26.03.24.Layla.Dream.mp4": 2345099166}
创建时间: 2026-05-02 16:12:00 大小:2.18 GB 文件数量:1 热度:0
    {"Torrent Downloaded From XXXClub.to .nfo": 34, "1pondotv.26.03.24.honoka.orihara.ptom.sex.xxx.mp4": 1898615383}
创建时间: 2026-05-02 13:19:20 大小:1.77 GB 文件数量:2 热度:0
    ... 66012917, "1995-03-29 info.txt": 838, "03 Walkin' Blues.flac ... "Grateful Dead - 1995-03-29 Atlanta (Play Dead) [24-48].ffp": 1085 ... , "Grateful Dead - 1995-03-29 Atlanta ... (Play Dead) [24-48].md5": 1105}
创建时间: 2026-05-01 19:11:09 大小:1.85 GB 文件数量:24 热度:0
    {"Provided by PornRips.to.nfo": 47, "NetVideoGirls.26.03.24.Kae.XXX.1080p.HEVC.x265.PRT.mp4": 615404410}
创建时间: 2026-05-01 19:10:30 大小:586.9 MB 文件数量:2 热度:0
    ... .Torrenting.org.nfo": 86, "Lesbea.24.03.12.Lovita.Fate.And.Lilly ... -iPT Team.avi": 187436856, "Lesbea.24.03.12.Lovita.Fate.And.Lilly ...
创建时间: 2026-05-01 16:08:53 大小:181.16 MB 文件数量:12 热度:0